Zeewolde, Netherlands
Current Conditions -  °F | °C
As of 10:55 AM on Saturday 25 Oct 2014 (Local Time) from EHDL Reporting Station
Haze Haze  
Wind Chill: 55°   Ceiling: 300
Heat Index: 55°   Visibility: 0.68mi
Dew Point: 55°   Wind: 7mph
Humidity: 100%   Direction: 220°SW
Pressure: 30.03"   Gusts: NA
Location:  52.33°N, 5.54°E
Report Text: EHDL 250855Z AUTO 22006KT 1100 BR SCT002 BKN003 13/13 Q1017 AMB
Loading
Personal Weather Stations






























Interactive Weather Map
Tropical Storm Tracking
New forecast layout! Learn more

10-Day Weather Forecast

Advertisements
Track Severe Weather on mobile